createdAt,value
2023-08-23T00:00:17.643Z,100183.50
2023-08-23T00:02:44.282Z,100188.44
2023-08-23T00:05:10.971Z,100193.00
2023-08-23T00:07:37.586Z,100194.78
2023-08-23T00:10:04.777Z,100195.94
2023-08-23T00:12:35.553Z,100200.88
2023-08-23T00:15:09.200Z,100204.63
2023-08-23T00:17:38.568Z,100195.28
2023-08-23T00:20:11.115Z,100190.75
2023-08-23T00:22:44.466Z,100186.50
2023-08-23T00:25:59.407Z,100196.94
2023-08-23T00:28:33.089Z,100177.66
2023-08-23T00:31:10.109Z,100180.44
2023-08-23T00:33:47.023Z,100177.34
2023-08-23T00:36:57.345Z,100195.28
2023-08-23T00:39:38.621Z,100181.25
2023-08-23T00:45:07.189Z,100197.63
2023-08-23T00:47:45.906Z,100191.56
2023-08-23T00:50:21.008Z,100193.38
2023-08-23T00:52:53.093Z,100171.66
2023-08-23T00:55:23.550Z,100197.09
2023-08-23T00:58:02.058Z,100165.94
2023-08-23T01:00:32.504Z,100175.91
2023-08-23T01:03:06.217Z,100190.41
2023-08-23T01:06:04.178Z,100186.66
2023-08-23T01:09:15.395Z,100186.81
2023-08-23T01:12:26.171Z,100187.16
2023-08-23T01:15:12.202Z,100187.66
2023-08-23T01:20:55.493Z,100186.34
2023-08-23T01:23:25.011Z,100175.25
2023-08-23T01:25:53.943Z,100176.72
2023-08-23T01:28:21.718Z,100172.31
2023-08-23T01:30:56.831Z,100183.72
2023-08-23T01:33:29.085Z,100191.56
2023-08-23T01:36:09.218Z,100195.63
2023-08-23T01:38:48.716Z,100192.38
2023-08-23T01:41:18.094Z,100196.78
2023-08-23T01:43:59.504Z,100171.16
2023-08-23T01:46:31.419Z,100189.91
2023-08-23T01:48:59.418Z,100190.72
2023-08-23T01:51:26.913Z,100184.06
2023-08-23T01:53:56.966Z,100166.75
2023-08-23T01:56:24.538Z,100192.03
2023-08-23T01:58:52.034Z,100205.09
2023-08-23T02:01:19.686Z,100196.94
2023-08-23T02:03:47.705Z,100214.56
2023-08-23T02:06:17.006Z,100192.34
2023-08-23T02:09:03.566Z,100214.06
2023-08-23T02:12:13.593Z,100196.25
2023-08-23T02:14:43.233Z,100188.19
2023-08-23T02:17:15.413Z,100197.34
2023-08-23T02:19:48.919Z,100188.66
2023-08-23T02:22:46.996Z,100196.81
2023-08-23T02:25:20.572Z,100203.06
2023-08-23T02:27:50.437Z,100193.19
2023-08-23T02:30:18.891Z,100208.72
2023-08-23T02:32:48.355Z,100206.28
2023-08-23T02:35:18.806Z,100197.94
2023-08-23T02:38:03.340Z,100207.13
2023-08-23T02:40:36.876Z,100188.16
2023-08-23T02:43:15.955Z,100178.53
2023-08-23T02:45:46.807Z,100176.22
2023-08-23T02:48:29.575Z,100194.69
2023-08-23T02:51:05.897Z,100193.72
2023-08-23T02:53:36.230Z,100190.78
2023-08-23T02:56:07.492Z,100185.06
2023-08-23T02:58:43.450Z,100193.41
2023-08-23T03:01:12.876Z,100187.19
2023-08-23T03:03:46.400Z,100186.06
2023-08-23T03:06:28.479Z,100199.47
2023-08-23T03:09:03.078Z,100184.28
2023-08-23T03:11:41.255Z,100195.38
2023-08-23T03:14:20.451Z,100197.63
2023-08-23T03:17:03.082Z,100179.84
2023-08-23T03:19:41.876Z,100178.38
2023-08-23T03:22:32.670Z,100194.50
2023-08-23T03:25:11.859Z,100181.72
2023-08-23T03:27:44.047Z,100169.72
2023-08-23T03:30:18.307Z,100187.81
2023-08-23T03:32:57.571Z,100190.56
2023-08-23T03:35:34.060Z,100187.91
2023-08-23T03:38:24.370Z,100184.88
2023-08-23T03:41:07.097Z,100197.91
2023-08-23T03:44:05.207Z,100204.91
2023-08-23T03:46:38.974Z,100200.25
2023-08-23T03:49:12.946Z,100201.88
2023-08-23T03:51:46.021Z,100181.88
2023-08-23T03:54:21.928Z,100202.31
2023-08-23T03:56:59.543Z,100173.22
2023-08-23T03:59:38.222Z,100209.66
2023-08-23T04:02:30.873Z,100189.19
2023-08-23T04:05:07.623Z,100204.53
2023-08-23T04:07:42.457Z,100203.72
2023-08-23T04:10:13.905Z,100213.84
2023-08-23T04:12:41.244Z,100201.97
2023-08-23T04:15:09.281Z,100207.91
2023-08-23T04:17:54.074Z,100221.03
2023-08-23T04:20:25.786Z,100205.59
2023-08-23T04:23:07.690Z,100218.06
2023-08-23T04:25:47.999Z,100208.94
2023-08-23T04:28:20.583Z,100231.69
2023-08-23T04:30:57.070Z,100219.78
2023-08-23T04:34:33.230Z,100228.84
2023-08-23T04:37:12.540Z,100221.84
2023-08-23T04:40:00.191Z,100218.91
2023-08-23T04:42:53.627Z,100216.16
2023-08-23T04:45:35.878Z,100227.81
2023-08-23T04:51:01.979Z,100227.50
2023-08-23T04:53:31.424Z,100200.94
2023-08-23T04:56:04.461Z,100219.28
2023-08-23T04:58:36.506Z,100226.97
2023-08-23T05:01:07.323Z,100220.78
2023-08-23T05:03:54.858Z,100233.84
2023-08-23T05:06:23.942Z,100207.38
2023-08-23T05:08:57.274Z,100218.50
2023-08-23T05:11:25.604Z,100220.47
2023-08-23T05:13:53.002Z,100229.63
2023-08-23T05:16:22.497Z,100229.59
2023-08-23T05:18:50.757Z,100232.72
2023-08-23T05:21:32.100Z,100235.31
2023-08-23T05:24:13.892Z,100229.41
2023-08-23T05:27:13.301Z,100227.41
2023-08-23T05:30:11.173Z,100240.75
2023-08-23T05:32:41.435Z,100242.34
2023-08-23T05:35:22.077Z,100248.22
2023-08-23T05:38:05.302Z,100248.75
2023-08-23T05:40:32.728Z,100250.94
2023-08-23T05:42:59.354Z,100261.81
2023-08-23T05:45:28.052Z,100252.56
2023-08-23T05:48:01.713Z,100256.72
2023-08-23T05:50:28.826Z,100245.41
2023-08-23T05:52:55.745Z,100250.38
2023-08-23T05:55:24.937Z,100249.56
2023-08-23T05:57:51.581Z,100258.88
2023-08-23T06:00:18.610Z,100259.94
2023-08-23T06:02:45.449Z,100252.44
2023-08-23T06:05:12.312Z,100267.19
2023-08-23T06:07:39.380Z,100254.16
2023-08-23T06:10:06.396Z,100253.56
2023-08-23T06:12:33.171Z,100252.50
2023-08-23T06:14:59.750Z,100256.75
2023-08-23T06:17:26.680Z,100252.91
2023-08-23T06:19:53.459Z,100254.38
2023-08-23T06:22:20.596Z,100256.50
2023-08-23T06:24:47.417Z,100256.66
2023-08-23T06:27:14.014Z,100268.69
2023-08-23T06:29:41.907Z,100262.28
2023-08-23T06:32:09.218Z,100263.84
2023-08-23T06:34:36.773Z,100262.44
2023-08-23T06:37:03.618Z,100249.16
2023-08-23T06:39:34.388Z,100258.53
2023-08-23T06:42:02.438Z,100244.06
2023-08-23T06:44:30.564Z,100253.81
2023-08-23T06:46:57.227Z,100254.94
2023-08-23T06:49:23.885Z,100249.69
2023-08-23T06:51:51.965Z,100250.16
2023-08-23T06:54:18.791Z,100244.22
2023-08-23T06:56:47.305Z,100255.34
2023-08-23T06:59:13.979Z,100259.97
2023-08-23T07:01:40.621Z,100248.44
2023-08-23T07:04:07.516Z,100255.34
2023-08-23T07:06:34.340Z,100260.69
2023-08-23T07:09:00.997Z,100263.94
2023-08-23T07:11:27.632Z,100267.97
2023-08-23T07:13:54.196Z,100272.25
2023-08-23T07:16:20.822Z,100271.50
2023-08-23T07:18:47.665Z,100261.28
2023-08-23T07:21:14.362Z,100260.66
2023-08-23T07:23:43.534Z,100266.00
2023-08-23T07:26:10.449Z,100271.63
2023-08-23T07:28:37.406Z,100272.25
2023-08-23T07:31:04.503Z,100273.06
2023-08-23T07:33:31.388Z,100273.81
2023-08-23T07:36:01.985Z,100272.03
2023-08-23T07:38:33.505Z,100273.88
2023-08-23T07:41:04.484Z,100278.09
2023-08-23T07:43:31.624Z,100274.38
2023-08-23T07:46:00.353Z,100271.72
2023-08-23T07:48:28.238Z,100270.44
2023-08-23T07:51:01.843Z,100264.84
2023-08-23T07:53:30.439Z,100275.03
2023-08-23T07:55:57.108Z,100272.69
2023-08-23T07:58:23.742Z,100265.38
2023-08-23T08:00:51.778Z,100274.84
2023-08-23T08:03:18.518Z,100273.88
2023-08-23T08:05:45.162Z,100270.03
2023-08-23T08:08:11.888Z,100265.72
2023-08-23T08:10:38.512Z,100273.34
2023-08-23T08:13:06.256Z,100264.28
2023-08-23T08:15:33.099Z,100275.72
2023-08-23T08:17:59.809Z,100264.84
2023-08-23T08:20:26.696Z,100270.63
2023-08-23T08:22:53.870Z,100276.09
2023-08-23T08:25:21.242Z,100268.19
2023-08-23T08:27:48.807Z,100269.66
2023-08-23T08:30:16.025Z,100267.16
2023-08-23T08:32:43.246Z,100273.38
2023-08-23T08:35:10.438Z,100276.19
2023-08-23T08:37:38.396Z,100275.59
2023-08-23T08:40:05.716Z,100274.94
2023-08-23T08:42:33.330Z,100274.19
2023-08-23T08:45:00.348Z,100280.19
2023-08-23T08:47:27.222Z,100283.03
2023-08-23T08:49:54.401Z,100287.56
2023-08-23T08:52:24.975Z,100288.72
2023-08-23T08:54:53.777Z,100290.81
2023-08-23T08:57:21.170Z,100287.00
2023-08-23T08:59:48.418Z,100281.28
2023-08-23T09:02:18.666Z,100278.38
2023-08-23T09:04:49.034Z,100272.69
2023-08-23T09:07:16.337Z,100271.16
2023-08-23T09:09:44.682Z,100273.09
2023-08-23T09:12:11.604Z,100269.78
2023-08-23T09:14:40.470Z,100280.13
2023-08-23T09:17:08.873Z,100271.28
2023-08-23T09:19:37.438Z,100275.41
2023-08-23T09:22:06.060Z,100281.59
2023-08-23T09:24:33.180Z,100285.66
2023-08-23T09:26:59.945Z,100281.59
2023-08-23T09:29:26.977Z,100282.75
2023-08-23T09:31:53.708Z,100274.72
2023-08-23T09:34:20.459Z,100284.81
2023-08-23T09:36:48.169Z,100275.81
2023-08-23T09:39:14.930Z,100273.22
2023-08-23T09:41:55.058Z,100276.78
2023-08-23T09:44:28.091Z,100270.66
2023-08-23T09:46:57.620Z,100267.09
2023-08-23T09:49:28.033Z,100270.97
2023-08-23T09:51:55.921Z,100268.19
2023-08-23T09:54:56.900Z,100261.22
2023-08-23T09:57:35.576Z,100264.47
2023-08-23T10:00:03.223Z,100252.25
2023-08-23T10:02:34.098Z,100258.06
2023-08-23T10:05:04.700Z,100252.81
2023-08-23T10:07:33.627Z,100256.16
2023-08-23T10:10:00.432Z,100251.50
2023-08-23T10:12:27.593Z,100251.69
2023-08-23T10:14:57.704Z,100245.50
2023-08-23T10:17:26.531Z,100235.56
2023-08-23T10:19:54.229Z,100231.25
2023-08-23T10:22:21.194Z,100234.94
2023-08-23T10:24:51.182Z,100224.66
2023-08-23T10:27:18.564Z,100232.69
2023-08-23T10:29:51.007Z,100224.13
2023-08-23T10:32:18.259Z,100225.88
2023-08-23T10:34:45.091Z,100220.63
2023-08-23T10:37:20.211Z,100219.00
2023-08-23T10:39:52.345Z,100214.94
2023-08-23T10:42:19.794Z,100207.69
2023-08-23T10:44:52.268Z,100212.94
2023-08-23T10:47:20.056Z,100206.00
2023-08-23T10:49:50.304Z,100205.53
2023-08-23T10:52:17.369Z,100203.47
2023-08-23T10:54:44.369Z,100197.47
2023-08-23T10:57:11.034Z,100202.25
2023-08-23T10:59:37.958Z,100202.22
2023-08-23T11:02:04.882Z,100201.31
2023-08-23T11:04:32.308Z,100199.66
2023-08-23T11:06:59.261Z,100185.84
2023-08-23T11:09:25.966Z,100186.59
2023-08-23T11:11:53.448Z,100187.41
2023-08-23T11:14:20.147Z,100189.25
2023-08-23T11:16:46.927Z,100178.38
2023-08-23T11:19:13.750Z,100186.78
2023-08-23T11:21:40.598Z,100181.34
2023-08-23T11:24:07.583Z,100183.34
2023-08-23T11:26:37.561Z,100169.47
2023-08-23T11:29:07.839Z,100164.69
2023-08-23T11:31:36.241Z,100165.03
2023-08-23T11:34:32.885Z,100169.88
2023-08-23T11:37:10.462Z,100159.09
2023-08-23T11:39:37.999Z,100166.34
2023-08-23T11:42:20.070Z,100163.38
2023-08-23T11:45:07.588Z,100162.13
2023-08-23T11:47:37.638Z,100154.16
2023-08-23T11:50:35.631Z,100146.19
2023-08-23T11:53:09.909Z,100161.88
2023-08-23T11:55:37.750Z,100157.78
2023-08-23T11:58:19.626Z,100163.72
2023-08-23T12:00:50.741Z,100147.78
2023-08-23T12:03:18.139Z,100155.91
2023-08-23T12:05:45.140Z,100153.72
2023-08-23T12:11:08.196Z,100153.25
2023-08-23T12:14:24.407Z,100161.06
2023-08-23T12:16:55.015Z,100149.03
2023-08-23T12:19:37.941Z,100155.06
2023-08-23T12:22:07.921Z,100154.47
2023-08-23T12:24:41.094Z,100151.28
2023-08-23T12:27:11.780Z,100150.78
2023-08-23T12:29:51.378Z,100149.31
2023-08-23T12:32:18.330Z,100132.75
2023-08-23T12:34:57.141Z,100147.66
2023-08-23T12:37:56.510Z,100153.19
2023-08-23T12:40:39.160Z,100148.16
2023-08-23T12:43:20.797Z,100152.94
2023-08-23T12:45:49.014Z,100113.97
2023-08-23T12:48:22.346Z,100142.00
2023-08-23T12:50:49.999Z,100131.13
2023-08-23T12:53:19.340Z,100146.94
2023-08-23T12:55:58.349Z,100139.88
2023-08-23T12:58:34.950Z,100135.53
2023-08-23T13:01:06.386Z,100124.66
2023-08-23T13:03:57.206Z,100135.84
2023-08-23T13:06:25.377Z,100133.22
2023-08-23T13:09:02.492Z,100128.94
2023-08-23T13:11:30.272Z,100116.84
2023-08-23T13:13:57.070Z,100105.94
2023-08-23T13:16:28.532Z,100117.66
2023-08-23T13:19:09.281Z,100104.91
2023-08-23T13:21:37.851Z,100106.00
2023-08-23T13:24:05.876Z,100119.94
2023-08-23T13:27:01.627Z,100110.00
2023-08-23T13:29:41.561Z,100122.84
2023-08-23T13:32:38.216Z,100106.81
2023-08-23T13:35:12.566Z,100110.56
2023-08-23T13:37:39.909Z,100098.94
2023-08-23T13:40:10.592Z,100089.69
2023-08-23T13:42:42.139Z,100099.09
2023-08-23T13:45:20.365Z,100071.31
2023-08-23T13:47:47.693Z,100102.91
2023-08-23T13:50:14.691Z,100100.19
2023-08-23T13:52:41.898Z,100093.25
2023-08-23T13:55:11.536Z,100087.81
2023-08-23T13:57:42.554Z,100088.91
2023-08-23T14:00:15.007Z,100079.13
2023-08-23T14:02:49.795Z,100067.03
2023-08-23T14:05:22.812Z,100077.09
2023-08-23T14:07:53.746Z,100077.97
2023-08-23T14:10:24.684Z,100063.41
2023-08-23T14:12:55.859Z,100073.13
2023-08-23T14:15:23.679Z,100055.69
2023-08-23T14:17:55.039Z,100063.72
2023-08-23T14:20:22.747Z,100078.22
2023-08-23T14:22:49.733Z,100056.84
2023-08-23T14:25:20.826Z,100077.06
2023-08-23T14:27:48.133Z,100080.97
2023-08-23T14:30:18.764Z,100081.59
2023-08-23T14:32:55.567Z,100069.94
2023-08-23T14:35:23.363Z,100071.75
2023-08-23T14:37:54.773Z,100065.56
2023-08-23T14:40:22.323Z,100088.81
2023-08-23T14:43:00.817Z,100081.28
2023-08-23T14:45:29.042Z,100041.78
2023-08-23T14:47:56.843Z,100067.25
2023-08-23T14:50:27.018Z,100073.38
2023-08-23T14:52:55.678Z,100071.34
2023-08-23T14:55:24.333Z,100074.06
2023-08-23T14:57:52.645Z,100080.16
2023-08-23T15:01:05.249Z,100077.00
2023-08-23T15:04:09.192Z,100072.94
2023-08-23T15:06:37.640Z,100068.81
2023-08-23T15:09:08.088Z,100069.91
2023-08-23T15:11:35.091Z,100083.63
2023-08-23T15:14:02.448Z,100067.06
2023-08-23T15:16:29.842Z,100070.19
2023-08-23T15:19:02.595Z,100075.56
2023-08-23T15:21:32.141Z,100072.72
2023-08-23T15:24:00.806Z,100071.19
2023-08-23T15:26:29.692Z,100054.69
2023-08-23T15:29:12.392Z,100077.75
2023-08-23T15:31:40.054Z,100050.16
2023-08-23T15:34:07.475Z,100071.81
2023-08-23T15:36:35.693Z,100051.25
2023-08-23T15:39:04.388Z,100055.66
2023-08-23T15:41:32.976Z,100062.47
2023-08-23T15:44:01.558Z,100072.75
2023-08-23T15:46:33.340Z,100059.38
2023-08-23T15:49:16.983Z,100050.75
2023-08-23T15:51:55.614Z,100060.25
2023-08-23T15:54:23.291Z,100074.69
2023-08-23T15:57:13.635Z,100062.94
2023-08-23T15:59:42.264Z,100075.34
2023-08-23T16:02:34.887Z,100070.50
2023-08-23T16:05:07.149Z,100074.78
2023-08-23T16:07:43.500Z,100070.94
2023-08-23T16:10:11.539Z,100036.59
2023-08-23T16:12:42.375Z,100039.38
2023-08-23T16:15:09.428Z,100048.06
2023-08-23T16:17:43.897Z,100072.00
2023-08-23T16:20:16.028Z,100066.25
2023-08-23T16:22:44.357Z,100065.44
2023-08-23T16:25:36.505Z,100064.16
2023-08-23T16:28:06.575Z,100060.06
2023-08-23T16:31:05.241Z,100054.53
2023-08-23T16:34:04.388Z,100058.97
2023-08-23T16:36:40.629Z,100038.00
2023-08-23T16:39:14.357Z,100056.75
2023-08-23T16:41:45.853Z,100062.00
2023-08-23T16:44:16.784Z,100056.53
2023-08-23T16:46:47.288Z,100062.97
2023-08-23T16:49:28.395Z,100068.03
2023-08-23T16:52:00.533Z,100068.31
2023-08-23T16:54:34.053Z,100064.41
2023-08-23T16:57:05.444Z,100036.13
2023-08-23T16:59:42.746Z,100069.94
2023-08-23T17:02:35.241Z,100069.75
2023-08-23T17:05:07.225Z,100076.44
2023-08-23T17:07:36.040Z,100065.81
2023-08-23T17:10:05.250Z,100019.84
2023-08-23T17:12:34.838Z,100067.00
2023-08-23T17:15:09.466Z,100085.41
2023-08-23T17:17:59.991Z,100077.69
2023-08-23T17:23:24.254Z,100068.25
2023-08-23T17:25:53.561Z,100081.00
2023-08-23T17:28:20.535Z,100044.22
2023-08-23T17:30:54.179Z,100069.22
2023-08-23T17:33:30.288Z,100081.47
2023-08-23T17:36:01.571Z,100077.28
2023-08-23T17:38:32.590Z,100079.09
2023-08-23T17:41:09.321Z,100082.81
2023-08-23T17:44:28.469Z,100039.44
2023-08-23T17:46:52.116Z,100089.50
2023-08-23T17:49:26.003Z,100076.59
2023-08-23T17:51:53.610Z,100071.16
2023-08-23T17:54:21.526Z,100070.50
2023-08-23T17:57:06.781Z,100088.91
2023-08-23T17:59:43.810Z,100060.13
2023-08-23T18:02:18.275Z,100083.13
2023-08-23T18:04:56.335Z,100092.34
2023-08-23T18:07:24.302Z,100099.53
2023-08-23T18:10:00.672Z,100091.09
2023-08-23T18:12:54.282Z,100102.28
2023-08-23T18:15:21.916Z,100081.66
2023-08-23T18:17:49.019Z,100088.84
2023-08-23T18:20:28.735Z,100114.44
2023-08-23T18:23:00.458Z,100100.81
2023-08-23T18:25:27.627Z,100114.31
2023-08-23T18:28:02.638Z,100126.28
2023-08-23T18:30:33.067Z,100128.69
2023-08-23T18:33:20.449Z,100121.91
2023-08-23T18:35:49.568Z,100128.28
2023-08-23T18:38:21.181Z,100090.13
2023-08-23T18:40:48.867Z,100106.84
2023-08-23T18:43:15.799Z,100141.59
2023-08-23T18:45:42.605Z,100133.31
2023-08-23T18:48:10.641Z,100131.44
2023-08-23T18:50:37.370Z,100138.38
2023-08-23T18:53:04.222Z,100132.19
2023-08-23T18:55:30.835Z,100130.56
2023-08-23T18:57:58.301Z,100136.47
2023-08-23T19:00:24.950Z,100131.13
2023-08-23T19:02:52.324Z,100139.75
2023-08-23T19:05:21.759Z,100128.56
2023-08-23T19:07:50.474Z,100136.44
2023-08-23T19:10:17.127Z,100143.88
2023-08-23T19:12:43.763Z,100143.22
2023-08-23T19:15:10.906Z,100142.09
2023-08-23T19:17:37.616Z,100148.94
2023-08-23T19:20:05.083Z,100135.09
2023-08-23T19:22:31.833Z,100145.25
2023-08-23T19:24:58.657Z,100146.28
2023-08-23T19:27:26.962Z,100160.72
2023-08-23T19:29:53.608Z,100153.06
2023-08-23T19:32:20.383Z,100159.16
2023-08-23T19:34:47.049Z,100160.84
2023-08-23T19:37:13.745Z,100143.41
2023-08-23T19:39:40.373Z,100158.94
2023-08-23T19:42:07.082Z,100146.66
2023-08-23T19:44:33.746Z,100157.97
2023-08-23T19:47:00.454Z,100162.72
2023-08-23T19:49:27.043Z,100153.25
2023-08-23T19:51:53.626Z,100164.84
2023-08-23T19:54:20.249Z,100167.94
2023-08-23T19:56:47.153Z,100160.97
2023-08-23T19:59:13.859Z,100163.25
2023-08-23T20:01:40.519Z,100169.16
2023-08-23T20:04:07.222Z,100168.34
2023-08-23T20:06:33.830Z,100167.41
2023-08-23T20:09:00.451Z,100175.72
2023-08-23T20:11:27.115Z,100167.59
2023-08-23T20:13:53.751Z,100162.69
2023-08-23T20:16:21.427Z,100161.72
2023-08-23T20:18:49.596Z,100167.75
2023-08-23T20:21:17.281Z,100165.31
2023-08-23T20:23:46.923Z,100163.72
2023-08-23T20:26:13.601Z,100163.03
2023-08-23T20:28:40.373Z,100166.50
2023-08-23T20:31:07.026Z,100167.00
2023-08-23T20:33:33.755Z,100170.44
2023-08-23T20:36:00.731Z,100169.31
2023-08-23T20:38:27.368Z,100166.53
2023-08-23T20:40:54.020Z,100164.44
2023-08-23T20:43:21.441Z,100163.78
2023-08-23T20:45:48.350Z,100174.75
2023-08-23T20:48:15.060Z,100169.19
2023-08-23T20:50:44.001Z,100177.50
2023-08-23T20:53:10.692Z,100179.47
2023-08-23T20:55:40.453Z,100188.16
2023-08-23T20:58:07.194Z,100191.69
2023-08-23T21:00:33.929Z,100194.47
2023-08-23T21:03:01.050Z,100181.59
2023-08-23T21:05:28.474Z,100193.81
2023-08-23T21:07:55.097Z,100202.31
2023-08-23T21:10:21.670Z,100193.34
2023-08-23T21:12:48.314Z,100190.91
2023-08-23T21:15:14.976Z,100199.06
2023-08-23T21:17:41.629Z,100203.97
2023-08-23T21:20:09.480Z,100200.06
2023-08-23T21:22:36.164Z,100197.28
2023-08-23T21:25:03.549Z,100203.31
2023-08-23T21:27:30.222Z,100193.50
2023-08-23T21:29:56.898Z,100200.19
2023-08-23T21:32:23.623Z,100201.66
2023-08-23T21:34:50.428Z,100202.28
2023-08-23T21:37:17.125Z,100207.78
2023-08-23T21:39:57.028Z,100211.50
2023-08-23T21:42:42.422Z,100208.91
2023-08-23T21:45:15.084Z,100212.50
2023-08-23T21:47:56.227Z,100205.13
2023-08-23T21:50:37.592Z,100186.19
2023-08-23T21:54:30.313Z,100167.69
2023-08-23T22:00:42.517Z,100216.16
2023-08-23T22:03:25.812Z,100182.19
2023-08-23T22:06:42.235Z,100203.38
2023-08-23T22:14:07.595Z,100224.09
2023-08-23T22:16:51.984Z,100226.69
2023-08-23T22:23:40.051Z,100185.53
2023-08-23T22:29:14.480Z,100186.16
2023-08-23T22:32:03.454Z,100209.34
2023-08-23T22:35:02.992Z,100179.38
2023-08-23T22:37:40.418Z,100182.59
2023-08-23T22:40:44.922Z,100181.78
2023-08-23T22:43:51.022Z,100178.16
2023-08-23T22:46:44.172Z,100189.28
2023-08-23T22:55:37.482Z,100187.84
2023-08-23T22:58:49.503Z,100217.09
2023-08-23T23:01:33.188Z,100209.69
2023-08-23T23:04:26.048Z,100218.69
2023-08-23T23:07:34.978Z,100187.13
2023-08-23T23:10:57.162Z,100212.41
2023-08-23T23:13:37.109Z,100197.16
2023-08-23T23:16:43.086Z,100212.50
2023-08-23T23:22:30.311Z,100166.28
2023-08-23T23:25:00.425Z,100190.13
2023-08-23T23:27:33.980Z,100192.06
2023-08-23T23:30:11.916Z,100170.38
2023-08-23T23:33:10.184Z,100217.47
2023-08-23T23:36:06.623Z,100218.91
2023-08-23T23:39:12.816Z,100227.31
2023-08-23T23:41:54.135Z,100217.72
2023-08-23T23:45:04.406Z,100213.38
2023-08-23T23:47:54.797Z,100218.63
2023-08-23T23:50:23.023Z,100216.44
2023-08-23T23:52:53.707Z,100172.88
2023-08-23T23:55:29.655Z,100211.66
2023-08-23T23:57:57.199Z,100208.50
